createdAt,value
2022-12-09T00:00:08.455Z,14.07
2022-12-09T00:02:35.864Z,10.55
2022-12-09T00:05:03.687Z,15.88
2022-12-09T00:07:30.951Z,17.45
2022-12-09T00:09:57.888Z,15.43
2022-12-09T00:12:24.680Z,15.38
2022-12-09T00:14:51.652Z,14.35
2022-12-09T00:17:18.836Z,13.55
2022-12-09T00:19:46.913Z,12.02
2022-12-09T00:22:13.897Z,15.90
2022-12-09T00:24:40.893Z,16.17
2022-12-09T00:27:07.696Z,11.75
2022-12-09T00:29:34.829Z,15.90
2022-12-09T00:32:01.682Z,15.40
2022-12-09T00:34:28.566Z,12.32
2022-12-09T00:36:55.680Z,13.05
2022-12-09T00:39:22.496Z,11.10
2022-12-09T00:41:49.918Z,14.57
2022-12-09T00:44:17.287Z,17.00
2022-12-09T00:46:44.105Z,16.00
2022-12-09T00:49:11.538Z,16.55
2022-12-09T00:51:38.603Z,20.10
2022-12-09T00:54:05.585Z,21.45
2022-12-09T00:56:32.722Z,17.35
2022-12-09T00:59:00.401Z,22.20
2022-12-09T01:01:28.476Z,18.50
2022-12-09T01:03:56.415Z,15.05
2022-12-09T01:06:25.604Z,14.77
2022-12-09T01:08:52.974Z,14.98
2022-12-09T01:11:27.918Z,15.00
2022-12-09T01:13:58.389Z,12.13
2022-12-09T01:16:29.736Z,16.63
2022-12-09T01:19:00.342Z,14.35
2022-12-09T01:21:28.913Z,17.60
2022-12-09T01:23:55.918Z,14.25
2022-12-09T01:26:22.696Z,11.02
2022-12-09T01:28:52.741Z,12.93
2022-12-09T01:31:23.305Z,12.95
2022-12-09T01:33:50.567Z,15.68
2022-12-09T01:36:22.744Z,10.63
2022-12-09T01:38:50.091Z,15.40
2022-12-09T01:41:18.892Z,10.88
2022-12-09T01:43:46.593Z,13.70
2022-12-09T01:46:13.443Z,11.32
2022-12-09T01:48:46.528Z,12.52
2022-12-09T01:51:19.915Z,13.55
2022-12-09T01:53:50.206Z,12.73
2022-12-09T01:56:32.794Z,15.75
2022-12-09T01:59:11.313Z,10.07
2022-12-09T02:01:40.284Z,16.35
2022-12-09T02:04:07.884Z,15.77
2022-12-09T02:06:39.182Z,12.98
2022-12-09T02:09:06.648Z,14.77
2022-12-09T02:12:20.551Z,16.15
2022-12-09T02:15:10.658Z,14.77
2022-12-09T02:17:42.940Z,15.43
2022-12-09T02:20:29.396Z,8.60
2022-12-09T02:23:19.592Z,14.85
2022-12-09T02:25:48.869Z,13.32
2022-12-09T02:28:46.744Z,11.48
2022-12-09T02:32:00.236Z,15.52
2022-12-09T02:34:32.566Z,12.30
2022-12-09T02:37:14.634Z,15.73
2022-12-09T02:39:55.100Z,10.80
2022-12-09T02:42:26.069Z,15.38
2022-12-09T02:44:53.326Z,10.90
2022-12-09T02:47:24.674Z,14.38
2022-12-09T02:49:57.410Z,16.67
2022-12-09T02:52:25.303Z,13.35
2022-12-09T02:54:53.528Z,10.88
2022-12-09T02:57:26.949Z,14.98
2022-12-09T02:59:53.879Z,13.70
2022-12-09T03:02:28.915Z,13.60
2022-12-09T03:05:24.509Z,9.95
2022-12-09T03:08:13.421Z,15.05
2022-12-09T03:11:08.368Z,14.32
2022-12-09T03:13:56.738Z,13.40
2022-12-09T03:16:49.548Z,14.18
2022-12-09T03:19:28.228Z,11.77
2022-12-09T03:22:00.986Z,15.13
2022-12-09T03:24:47.369Z,15.05
2022-12-09T03:27:19.906Z,15.23
2022-12-09T03:29:49.352Z,15.35
2022-12-09T03:32:18.828Z,15.18
2022-12-09T03:34:50.379Z,13.48
2022-12-09T03:37:20.216Z,16.38
2022-12-09T03:39:49.538Z,14.57
2022-12-09T03:42:28.432Z,14.30
2022-12-09T03:45:01.592Z,15.75
2022-12-09T03:47:28.658Z,10.02
2022-12-09T03:49:55.933Z,13.55
2022-12-09T03:52:46.677Z,19.10
2022-12-09T03:55:22.412Z,11.95
2022-12-09T03:57:55.201Z,9.55
2022-12-09T04:00:22.436Z,15.20
2022-12-09T04:02:49.943Z,13.32
2022-12-09T04:05:17.037Z,14.50
2022-12-09T04:07:44.127Z,11.23
2022-12-09T04:10:11.499Z,13.55
2022-12-09T04:12:40.274Z,15.23
2022-12-09T04:15:10.236Z,14.32
2022-12-09T04:17:37.767Z,12.88
2022-12-09T04:20:07.986Z,14.85
2022-12-09T04:22:35.349Z,12.52
2022-12-09T04:25:02.272Z,7.65
2022-12-09T04:27:29.391Z,13.02
2022-12-09T04:29:56.235Z,14.63
2022-12-09T04:32:23.164Z,14.32
2022-12-09T04:34:50.055Z,11.98
2022-12-09T04:37:16.887Z,14.60
2022-12-09T04:39:43.696Z,10.35
2022-12-09T04:42:10.535Z,13.95
2022-12-09T04:44:37.408Z,14.35
2022-12-09T04:47:04.723Z,13.05
2022-12-09T04:49:31.754Z,11.02
2022-12-09T04:51:58.832Z,13.98
2022-12-09T04:54:25.636Z,12.02
2022-12-09T04:56:52.865Z,11.32
2022-12-09T04:59:19.675Z,13.00
2022-12-09T05:01:46.646Z,11.98
2022-12-09T05:04:14.137Z,11.93
2022-12-09T05:06:41.538Z,12.60
2022-12-09T05:09:13.229Z,11.65
2022-12-09T05:11:40.970Z,10.65
2022-12-09T05:14:07.981Z,12.30
2022-12-09T05:16:35.198Z,12.52
2022-12-09T05:19:02.444Z,12.63
2022-12-09T05:21:30.084Z,12.45
2022-12-09T05:23:57.531Z,12.60
2022-12-09T05:26:24.876Z,13.70
2022-12-09T05:28:52.454Z,13.02
2022-12-09T05:31:23.625Z,13.75
2022-12-09T05:33:52.466Z,13.25
2022-12-09T05:36:24.284Z,13.63
2022-12-09T05:38:52.137Z,12.32
2022-12-09T05:41:20.427Z,14.65
2022-12-09T05:43:47.756Z,13.10
2022-12-09T05:46:16.131Z,14.15
2022-12-09T05:48:44.172Z,13.75
2022-12-09T05:51:21.743Z,13.57
2022-12-09T05:53:48.805Z,13.77
2022-12-09T05:56:18.077Z,17.55
2022-12-09T05:58:45.669Z,24.20
2022-12-09T06:01:13.698Z,31.02
2022-12-09T06:03:40.742Z,21.95
2022-12-09T06:06:14.881Z,23.10
2022-12-09T06:08:43.673Z,17.58
2022-12-09T06:11:21.018Z,13.35
2022-12-09T06:13:49.889Z,15.38
2022-12-09T06:16:19.801Z,14.30
2022-12-09T06:18:48.554Z,11.55
2022-12-09T06:21:17.731Z,14.48
2022-12-09T06:23:44.966Z,12.80
2022-12-09T06:26:27.593Z,12.93
2022-12-09T06:28:56.160Z,10.18
2022-12-09T06:31:24.021Z,14.05
2022-12-09T06:33:56.459Z,10.32
2022-12-09T06:36:25.977Z,12.60
2022-12-09T06:38:54.757Z,12.00
2022-12-09T06:41:21.907Z,13.40
2022-12-09T06:43:49.475Z,13.13
2022-12-09T06:46:23.743Z,14.23
2022-12-09T06:48:52.894Z,12.10
2022-12-09T06:51:20.364Z,13.80
2022-12-09T06:53:48.192Z,16.77
2022-12-09T06:56:16.246Z,16.92
2022-12-09T06:58:45.738Z,16.92
2022-12-09T07:01:20.050Z,13.50
2022-12-09T07:03:51.431Z,18.27
2022-12-09T07:06:34.590Z,17.45
2022-12-09T07:09:06.556Z,17.58
2022-12-09T07:11:34.368Z,14.60
2022-12-09T07:14:02.088Z,15.88
2022-12-09T07:16:29.392Z,20.75
2022-12-09T07:18:57.334Z,18.85
2022-12-09T07:21:25.119Z,19.58
2022-12-09T07:23:52.753Z,19.30
2022-12-09T07:26:20.851Z,19.90
2022-12-09T07:28:50.454Z,18.52
2022-12-09T07:31:26.583Z,19.88
2022-12-09T07:33:56.319Z,14.35
2022-12-09T07:36:25.987Z,18.92
2022-12-09T07:39:15.485Z,21.05
2022-12-09T07:41:42.769Z,19.00
2022-12-09T07:44:11.334Z,18.67
2022-12-09T07:46:39.749Z,20.85
2022-12-09T07:49:07.307Z,21.23
2022-12-09T07:51:34.842Z,20.40
2022-12-09T07:54:01.855Z,21.67
2022-12-09T07:56:29.375Z,21.15
2022-12-09T07:58:57.428Z,18.77
2022-12-09T08:01:30.389Z,19.88
2022-12-09T08:03:58.279Z,21.38
2022-12-09T08:06:29.443Z,18.23
2022-12-09T08:09:02.267Z,20.45
2022-12-09T08:11:32.347Z,16.25
2022-12-09T08:14:08.866Z,19.40
2022-12-09T08:16:38.373Z,15.65
2022-12-09T08:19:05.586Z,17.13
2022-12-09T08:21:33.786Z,19.00
2022-12-09T08:24:03.514Z,18.92
2022-12-09T08:26:32.421Z,17.08
2022-12-09T08:29:00.307Z,17.35
2022-12-09T08:31:28.601Z,19.88
2022-12-09T08:33:56.839Z,18.67
2022-12-09T08:36:28.482Z,16.85
2022-12-09T08:38:59.436Z,17.35
2022-12-09T08:41:38.963Z,17.15
2022-12-09T08:44:17.183Z,17.75
2022-12-09T08:46:48.240Z,15.77
2022-12-09T08:49:20.195Z,17.05
2022-12-09T08:51:50.162Z,12.38
2022-12-09T08:54:18.095Z,15.73
2022-12-09T08:56:49.993Z,16.48
2022-12-09T08:59:17.888Z,16.23
2022-12-09T09:01:45.657Z,14.20
2022-12-09T09:04:17.224Z,12.98
2022-12-09T09:06:48.421Z,14.15
2022-12-09T09:09:16.882Z,14.57
2022-12-09T09:11:44.991Z,14.13
2022-12-09T09:14:14.184Z,14.32
2022-12-09T09:16:44.117Z,13.02
2022-12-09T09:19:21.637Z,14.38
2022-12-09T09:21:49.881Z,15.27
2022-12-09T09:24:19.899Z,15.38
2022-12-09T09:26:48.601Z,14.68
2022-12-09T09:29:18.280Z,14.80
2022-12-09T09:31:48.644Z,14.50
2022-12-09T09:34:18.977Z,14.38
2022-12-09T09:36:46.866Z,15.13
2022-12-09T09:39:14.013Z,14.93
2022-12-09T09:41:50.899Z,15.27
2022-12-09T09:44:38.746Z,13.57
2022-12-09T09:47:34.748Z,13.82
2022-12-09T09:50:31.954Z,15.25
2022-12-09T09:53:11.547Z,14.35
2022-12-09T09:55:56.908Z,12.85
2022-12-09T09:58:48.823Z,14.85
2022-12-09T10:01:19.067Z,15.50
2022-12-09T10:04:22.809Z,13.65
2022-12-09T10:07:07.186Z,13.55
2022-12-09T10:09:58.812Z,15.50
2022-12-09T10:12:42.647Z,15.48
2022-12-09T10:15:16.964Z,15.25
2022-12-09T10:18:09.530Z,14.43
2022-12-09T10:20:38.523Z,11.23
2022-12-09T10:23:12.917Z,13.57
2022-12-09T10:25:49.156Z,14.82
2022-12-09T10:28:34.688Z,14.93
2022-12-09T10:31:03.222Z,14.73
2022-12-09T10:33:39.422Z,15.32
2022-12-09T10:36:30.803Z,13.07
2022-12-09T10:39:01.071Z,15.23
2022-12-09T10:42:18.216Z,16.05
2022-12-09T10:44:49.045Z,15.60
2022-12-09T10:47:28.178Z,15.75
2022-12-09T10:49:56.255Z,16.38
2022-12-09T10:52:31.079Z,15.10
2022-12-09T10:54:58.239Z,14.40
2022-12-09T10:57:29.171Z,14.60
2022-12-09T11:00:34.629Z,15.55
2022-12-09T11:03:03.537Z,19.92
2022-12-09T11:05:34.776Z,15.73
2022-12-09T11:08:02.932Z,16.15
2022-12-09T11:10:31.076Z,14.85
2022-12-09T11:13:09.845Z,14.75
2022-12-09T11:15:45.098Z,16.10
2022-12-09T11:18:29.347Z,15.27
2022-12-09T11:21:08.817Z,16.40
2022-12-09T11:23:36.809Z,15.10
2022-12-09T11:26:24.576Z,16.48
2022-12-09T11:29:17.852Z,16.33
2022-12-09T11:31:46.249Z,14.07
2022-12-09T11:34:26.245Z,16.90
2022-12-09T11:36:58.406Z,14.00
2022-12-09T11:39:35.214Z,15.80
2022-12-09T11:42:19.965Z,15.77
2022-12-09T11:45:04.436Z,15.35
2022-12-09T11:50:31.629Z,15.75
2022-12-09T11:53:10.522Z,15.85
2022-12-09T11:55:47.210Z,16.58
2022-12-09T11:58:45.395Z,15.32
2022-12-09T12:01:22.480Z,16.65
2022-12-09T12:04:11.646Z,15.57
2022-12-09T12:06:51.189Z,14.93
2022-12-09T12:09:34.549Z,15.90
2022-12-09T12:12:25.392Z,16.17
2022-12-09T12:14:52.822Z,16.38
2022-12-09T12:17:37.480Z,17.98
2022-12-09T12:20:06.472Z,18.67
2022-12-09T12:23:13.839Z,20.85
2022-12-09T12:25:54.821Z,19.15
2022-12-09T12:28:36.768Z,18.88
2022-12-09T12:31:40.877Z,18.48
2022-12-09T12:34:47.105Z,16.38
2022-12-09T12:37:28.820Z,20.30
2022-12-09T12:40:27.169Z,19.30
2022-12-09T12:43:18.697Z,18.50
2022-12-09T12:46:26.945Z,17.95
2022-12-09T12:49:21.999Z,20.00
2022-12-09T12:52:03.477Z,20.20
2022-12-09T12:55:14.782Z,18.83
2022-12-09T12:57:56.540Z,23.33
2022-12-09T13:00:26.980Z,20.65
2022-12-09T13:03:40.697Z,20.00
2022-12-09T13:06:14.671Z,19.98
2022-12-09T13:08:57.088Z,20.02
2022-12-09T13:12:11.634Z,20.25
2022-12-09T13:14:54.254Z,17.17
2022-12-09T13:17:27.711Z,20.20
2022-12-09T13:20:01.409Z,19.15
2022-12-09T13:22:48.106Z,21.52
2022-12-09T13:25:38.724Z,21.98
2022-12-09T13:28:35.782Z,16.88
2022-12-09T13:31:09.590Z,19.35
2022-12-09T13:33:58.340Z,21.23
2022-12-09T13:36:41.568Z,18.05
2022-12-09T13:42:02.340Z,18.50
2022-12-09T13:44:34.390Z,19.15
2022-12-09T13:47:36.883Z,13.83
2022-12-09T13:50:09.498Z,21.17
2022-12-09T13:52:53.334Z,20.85
2022-12-09T13:55:39.953Z,17.52
2022-12-09T13:58:36.765Z,17.42
2022-12-09T14:01:12.408Z,18.40
2022-12-09T14:03:57.582Z,18.25
2022-12-09T14:06:37.206Z,16.25
2022-12-09T14:09:23.974Z,16.73
2022-12-09T14:11:56.406Z,15.23
2022-12-09T14:14:23.112Z,18.20
2022-12-09T14:17:01.707Z,13.98
2022-12-09T14:19:33.876Z,18.25
2022-12-09T14:22:22.210Z,18.73
2022-12-09T14:24:57.844Z,19.38
2022-12-09T14:27:31.856Z,20.38
2022-12-09T14:30:25.710Z,24.25
2022-12-09T14:32:57.194Z,25.60
2022-12-09T14:35:31.989Z,18.60
2022-12-09T14:38:28.274Z,22.40
2022-12-09T14:41:13.576Z,18.45
2022-12-09T14:44:07.601Z,19.33
2022-12-09T14:46:38.033Z,19.98
2022-12-09T14:49:25.229Z,19.65
2022-12-09T14:52:03.033Z,20.45
2022-12-09T14:54:35.682Z,20.25
2022-12-09T14:57:14.214Z,19.52
2022-12-09T14:59:50.417Z,20.52
2022-12-09T15:02:30.732Z,18.85
2022-12-09T15:05:01.211Z,19.50
2022-12-09T15:07:33.767Z,20.52
2022-12-09T15:10:04.417Z,15.52
2022-12-09T15:12:41.121Z,21.60
2022-12-09T15:15:16.113Z,20.90
2022-12-09T15:17:54.744Z,22.60
2022-12-09T15:20:34.892Z,20.35
2022-12-09T15:23:23.885Z,19.02
2022-12-09T15:26:03.085Z,21.95
2022-12-09T15:28:33.519Z,24.48
2022-12-09T15:31:18.537Z,22.50
2022-12-09T15:33:50.351Z,22.70
2022-12-09T15:36:40.438Z,22.98
2022-12-09T15:39:11.626Z,21.30
2022-12-09T15:42:04.680Z,18.15
2022-12-09T15:45:04.409Z,17.75
2022-12-09T15:48:14.420Z,19.45
2022-12-09T15:50:51.852Z,22.25
2022-12-09T15:53:44.264Z,20.60
2022-12-09T15:56:33.760Z,19.20
2022-12-09T15:59:12.170Z,21.70
2022-12-09T16:01:39.143Z,20.48
2022-12-09T16:04:08.555Z,22.17
2022-12-09T16:06:38.058Z,22.48
2022-12-09T16:09:18.019Z,22.13
2022-12-09T16:11:50.227Z,21.27
2022-12-09T16:14:19.113Z,17.25
2022-12-09T16:16:58.665Z,19.77
2022-12-09T16:19:41.785Z,23.05
2022-12-09T16:22:14.304Z,22.90
2022-12-09T16:25:27.153Z,21.73
2022-12-09T16:28:04.055Z,20.10
2022-12-09T16:30:34.454Z,20.33
2022-12-09T16:33:04.897Z,20.33
2022-12-09T16:35:42.858Z,20.63
2022-12-09T16:38:09.551Z,20.95
2022-12-09T16:40:45.733Z,20.98
2022-12-09T16:43:19.027Z,20.40
2022-12-09T16:46:28.589Z,21.38
2022-12-09T16:48:57.252Z,16.50
2022-12-09T16:51:26.084Z,22.77
2022-12-09T16:53:54.274Z,21.58
2022-12-09T16:56:27.209Z,20.27
2022-12-09T17:01:25.546Z,25.00
2022-12-09T17:04:32.725Z,24.88
2022-12-09T17:06:59.564Z,25.20
2022-12-09T17:09:26.345Z,24.45
2022-12-09T17:11:53.145Z,25.02
2022-12-09T17:14:20.223Z,33.38
2022-12-09T17:16:47.114Z,27.75
2022-12-09T17:19:14.025Z,23.98
2022-12-09T17:21:40.853Z,21.73
2022-12-09T17:24:11.259Z,23.02
2022-12-09T17:26:38.262Z,21.95
2022-12-09T17:29:07.036Z,17.45
2022-12-09T17:31:33.883Z,22.45
2022-12-09T17:34:00.740Z,22.98
2022-12-09T17:36:27.470Z,22.77
2022-12-09T17:38:54.512Z,23.92
2022-12-09T17:41:23.616Z,20.38
2022-12-09T17:43:50.597Z,23.55
2022-12-09T17:46:17.764Z,22.15
2022-12-09T17:48:44.795Z,21.85
2022-12-09T17:51:14.955Z,25.65
2022-12-09T17:53:42.949Z,23.42
2022-12-09T17:56:16.478Z,20.65
2022-12-09T17:58:43.571Z,22.60
2022-12-09T18:01:29.749Z,19.70
2022-12-09T18:04:04.350Z,20.50
2022-12-09T18:06:34.388Z,22.35
2022-12-09T18:09:06.880Z,18.05
2022-12-09T18:11:35.192Z,15.90
2022-12-09T18:14:02.226Z,22.08
2022-12-09T18:16:29.411Z,20.20
2022-12-09T18:18:56.313Z,22.15
2022-12-09T18:21:23.700Z,18.98
2022-12-09T18:23:50.655Z,22.15
2022-12-09T18:26:19.760Z,19.77
2022-12-09T18:28:46.883Z,22.02
2022-12-09T18:31:19.261Z,19.73
2022-12-09T18:33:46.644Z,18.95
2022-12-09T18:36:25.047Z,21.25
2022-12-09T18:38:53.958Z,24.80
2022-12-09T18:41:25.340Z,21.73
2022-12-09T18:43:54.578Z,23.35
2022-12-09T18:46:34.830Z,18.20
2022-12-09T18:49:10.083Z,22.83
2022-12-09T18:51:38.848Z,21.98
2022-12-09T18:54:06.728Z,19.20
2022-12-09T18:56:35.029Z,22.08
2022-12-09T18:59:07.031Z,22.52
2022-12-09T19:01:38.912Z,23.42
2022-12-09T19:04:10.490Z,22.13
2022-12-09T19:06:41.654Z,18.73
2022-12-09T19:09:16.899Z,23.65
2022-12-09T19:11:46.166Z,20.58
2022-12-09T19:14:14.064Z,24.10
2022-12-09T19:16:42.457Z,21.55
2022-12-09T19:19:13.947Z,19.15
2022-12-09T19:21:41.160Z,21.08
2022-12-09T19:24:16.977Z,21.58
2022-12-09T19:26:44.861Z,20.77
2022-12-09T19:29:13.840Z,22.10
2022-12-09T19:31:47.248Z,24.17
2022-12-09T19:34:26.732Z,25.85
2022-12-09T19:36:56.482Z,22.23
2022-12-09T19:39:28.830Z,24.15
2022-12-09T19:41:57.169Z,23.63
2022-12-09T19:44:52.470Z,25.55
2022-12-09T19:47:13.300Z,26.05
2022-12-09T19:49:42.022Z,27.27
2022-12-09T19:52:08.849Z,33.95
2022-12-09T19:54:35.797Z,26.48
2022-12-09T19:57:02.648Z,26.80
2022-12-09T19:59:29.646Z,23.77
2022-12-09T20:01:56.560Z,20.15
2022-12-09T20:07:12.531Z,23.88
2022-12-09T20:09:39.708Z,24.65
2022-12-09T20:12:06.755Z,25.40
2022-12-09T20:14:33.755Z,26.25
2022-12-09T20:17:00.545Z,24.02
2022-12-09T20:19:27.746Z,28.02
2022-12-09T20:21:55.041Z,26.17
2022-12-09T20:24:21.838Z,26.67
2022-12-09T20:26:48.765Z,25.60
2022-12-09T20:29:15.812Z,26.75
2022-12-09T20:31:43.088Z,27.42
2022-12-09T20:34:18.912Z,25.13
2022-12-09T20:36:46.628Z,26.88
2022-12-09T20:39:18.610Z,26.95
2022-12-09T20:41:46.909Z,20.00
2022-12-09T20:44:15.942Z,23.73
2022-12-09T20:46:48.126Z,27.10
2022-12-09T20:49:15.438Z,27.23
2022-12-09T20:51:45.385Z,28.30
2022-12-09T20:54:13.773Z,21.90
2022-12-09T20:56:41.196Z,22.73
2022-12-09T20:59:09.991Z,24.65
2022-12-09T21:01:37.328Z,24.98
2022-12-09T21:04:06.664Z,20.65
2022-12-09T21:06:39.596Z,26.20
2022-12-09T21:11:38.506Z,24.88
2022-12-09T21:14:06.935Z,25.90
2022-12-09T21:16:39.482Z,28.73
2022-12-09T21:19:10.272Z,27.20
2022-12-09T21:21:40.294Z,23.73
2022-12-09T21:24:07.891Z,25.67
2022-12-09T21:26:34.666Z,30.55
2022-12-09T21:29:02.209Z,28.17
2022-12-09T21:31:35.893Z,33.53
2022-12-09T21:34:06.207Z,24.30
2022-12-09T21:36:40.087Z,26.27
2022-12-09T21:39:07.436Z,22.23
2022-12-09T21:41:36.562Z,28.52
2022-12-09T21:44:05.309Z,29.17
2022-12-09T21:46:36.000Z,26.58
2022-12-09T21:49:05.817Z,30.10
2022-12-09T21:51:34.289Z,26.50
2022-12-09T21:54:01.357Z,30.98
2022-12-09T21:56:32.635Z,27.08
2022-12-09T21:59:00.084Z,29.00
2022-12-09T22:01:30.561Z,35.85
2022-12-09T22:03:59.600Z,30.50
2022-12-09T22:06:27.749Z,30.17
2022-12-09T22:08:54.833Z,38.72
2022-12-09T22:11:29.017Z,32.33
2022-12-09T22:13:58.595Z,38.13
2022-12-09T22:16:30.268Z,38.35
2022-12-09T22:18:59.460Z,31.08
2022-12-09T22:21:29.805Z,31.77
2022-12-09T22:24:00.923Z,36.55
2022-12-09T22:26:28.112Z,36.03
2022-12-09T22:28:55.955Z,24.65
2022-12-09T22:31:27.268Z,32.30
2022-12-09T22:33:59.432Z,34.28
2022-12-09T22:36:26.652Z,39.55
2022-12-09T22:38:53.972Z,31.60
2022-12-09T22:41:25.541Z,29.52
2022-12-09T22:43:55.293Z,24.67
2022-12-09T22:46:29.339Z,31.73
2022-12-09T22:49:00.649Z,24.70
2022-12-09T22:51:31.116Z,32.55
2022-12-09T22:54:00.288Z,27.33
2022-12-09T22:56:27.730Z,25.63
2022-12-09T22:58:54.728Z,31.77
2022-12-09T23:01:28.585Z,31.23
2022-12-09T23:03:57.532Z,32.67
2022-12-09T23:06:25.961Z,26.55
2022-12-09T23:08:53.373Z,25.08
2022-12-09T23:11:24.437Z,29.38
2022-12-09T23:13:51.490Z,30.17
2022-12-09T23:16:22.282Z,20.52
2022-12-09T23:18:51.196Z,25.98
2022-12-09T23:21:28.813Z,27.33
2022-12-09T23:23:59.057Z,36.72
2022-12-09T23:26:28.934Z,34.03
2022-12-09T23:28:59.458Z,32.38
2022-12-09T23:31:31.357Z,34.42
2022-12-09T23:33:59.204Z,32.83
2022-12-09T23:36:30.956Z,36.60
2022-12-09T23:38:58.866Z,29.08
2022-12-09T23:41:26.470Z,32.53
2022-12-09T23:43:53.973Z,40.65
2022-12-09T23:46:24.879Z,36.88
2022-12-09T23:48:53.555Z,35.15
2022-12-09T23:51:24.920Z,32.75
2022-12-09T23:53:55.354Z,31.08
2022-12-09T23:56:25.780Z,35.65
2022-12-09T23:58:58.448Z,28.08
